createdAt,value
2019-04-03T00:00:13.831Z,33.17
2019-04-03T00:02:42.461Z,33.67
2019-04-03T00:05:11.149Z,36.00
2019-04-03T00:07:39.707Z,30.80
2019-04-03T00:10:09.293Z,39.63
2019-04-03T00:12:40.481Z,33.13
2019-04-03T00:15:09.831Z,34.70
2019-04-03T00:17:38.408Z,35.50
2019-04-03T00:20:08.700Z,30.20
2019-04-03T00:22:38.301Z,31.80
2019-04-03T00:25:07.963Z,33.03
2019-04-03T00:27:36.571Z,31.57
2019-04-03T00:30:07.571Z,28.80
2019-04-03T00:32:36.595Z,34.10
2019-04-03T00:35:11.520Z,32.13
2019-04-03T00:37:40.066Z,28.80
2019-04-03T00:40:09.009Z,27.27
2019-04-03T00:42:37.592Z,31.73
2019-04-03T00:45:07.254Z,28.13
2019-04-03T00:47:36.143Z,36.27
2019-04-03T00:50:06.615Z,33.23
2019-04-03T00:52:35.528Z,32.87
2019-04-03T00:55:05.190Z,31.37
2019-04-03T00:57:33.752Z,29.33
2019-04-03T01:00:02.321Z,28.30
2019-04-03T01:02:30.885Z,28.73
2019-04-03T01:04:59.477Z,31.53
2019-04-03T01:07:29.264Z,33.00
2019-04-03T01:09:59.564Z,30.47
2019-04-03T01:12:30.361Z,31.30
2019-04-03T01:15:01.144Z,30.57
2019-04-03T01:17:29.089Z,29.63
2019-04-03T01:19:57.659Z,29.53
2019-04-03T01:22:26.212Z,31.27
2019-04-03T01:24:54.797Z,33.17
2019-04-03T01:27:23.448Z,32.63
2019-04-03T01:29:52.037Z,27.87
2019-04-03T01:32:20.689Z,28.67
2019-04-03T01:34:49.265Z,34.30
2019-04-03T01:37:19.004Z,29.27
2019-04-03T01:39:49.030Z,35.73
2019-04-03T01:42:18.240Z,36.43
2019-04-03T01:44:46.824Z,34.43
2019-04-03T01:47:15.541Z,32.80
2019-04-03T01:49:44.089Z,31.00
2019-04-03T01:52:12.655Z,33.87
2019-04-03T01:54:41.360Z,34.67
2019-04-03T01:57:09.916Z,32.90
2019-04-03T01:59:38.498Z,31.37
2019-04-03T02:02:08.538Z,35.17
2019-04-03T02:04:37.278Z,32.50
2019-04-03T02:07:05.833Z,35.13
2019-04-03T02:09:34.521Z,39.77
2019-04-03T02:12:03.166Z,34.47
2019-04-03T02:14:31.721Z,35.57
2019-04-03T02:17:00.300Z,33.40
2019-04-03T02:19:28.876Z,38.70
2019-04-03T02:21:58.469Z,38.77
2019-04-03T02:24:27.750Z,40.63
2019-04-03T02:26:56.331Z,35.00
2019-04-03T02:29:24.924Z,33.77
2019-04-03T02:31:53.568Z,30.87
2019-04-03T02:34:22.272Z,35.43
2019-04-03T02:36:51.125Z,33.03
2019-04-03T02:39:19.727Z,43.50
2019-04-03T02:41:48.901Z,33.23
2019-04-03T02:44:19.149Z,35.53
2019-04-03T02:46:47.942Z,34.00
2019-04-03T02:49:16.508Z,38.90
2019-04-03T02:51:46.741Z,34.33
2019-04-03T02:54:30.058Z,39.47
2019-04-03T02:56:59.240Z,35.80
2019-04-03T02:59:27.874Z,38.30
2019-04-03T03:01:56.468Z,35.90
2019-04-03T03:04:26.146Z,36.67
2019-04-03T03:06:55.132Z,37.37
2019-04-03T03:09:23.891Z,32.53
2019-04-03T03:11:55.229Z,34.30
2019-04-03T03:14:23.613Z,33.87
2019-04-03T03:16:53.216Z,32.60
2019-04-03T03:19:23.342Z,43.27
2019-04-03T03:21:54.995Z,33.67
2019-04-03T03:24:23.909Z,32.70
2019-04-03T03:26:52.950Z,32.50
2019-04-03T03:29:25.683Z,33.33
2019-04-03T03:32:11.561Z,35.47
2019-04-03T03:34:45.855Z,36.40
2019-04-03T03:36:59.998Z,31.97
2019-04-03T03:39:27.405Z,34.63
2019-04-03T03:41:58.561Z,40.40
2019-04-03T03:44:28.281Z,39.87
2019-04-03T03:47:01.488Z,40.40
2019-04-03T03:49:29.445Z,36.93
2019-04-03T03:52:02.613Z,47.80
2019-04-03T03:54:29.845Z,42.87
2019-04-03T03:56:59.153Z,38.77
2019-04-03T03:59:27.890Z,33.60
2019-04-03T04:01:56.518Z,42.10
2019-04-03T04:04:25.207Z,33.20
2019-04-03T04:06:53.968Z,40.10
2019-04-03T04:09:22.669Z,37.77
2019-04-03T04:11:52.289Z,37.33
2019-04-03T04:14:23.035Z,37.20
2019-04-03T04:16:51.833Z,35.07
2019-04-03T04:19:21.524Z,42.80
2019-04-03T04:21:50.476Z,35.80
2019-04-03T04:24:38.475Z,39.43
2019-04-03T04:27:07.034Z,34.93
2019-04-03T04:29:35.698Z,43.13
2019-04-03T04:32:04.282Z,38.10
2019-04-03T04:34:32.915Z,39.27
2019-04-03T04:37:02.846Z,35.43
2019-04-03T04:39:32.559Z,33.37
2019-04-03T04:42:03.484Z,39.03
2019-04-03T04:44:31.473Z,39.30
2019-04-03T04:47:00.040Z,35.33
2019-04-03T04:49:28.858Z,37.10
2019-04-03T04:51:57.627Z,35.43
2019-04-03T04:54:26.195Z,42.30
2019-04-03T04:56:54.747Z,41.73
2019-04-03T04:59:23.349Z,40.97
2019-04-03T05:01:51.914Z,35.87
2019-04-03T05:04:20.869Z,40.20
2019-04-03T05:06:49.549Z,38.37
2019-04-03T05:09:18.190Z,39.70
2019-04-03T05:11:46.998Z,35.13
2019-04-03T05:14:15.845Z,37.73
2019-04-03T05:16:45.868Z,39.43
2019-04-03T05:19:18.486Z,35.60
2019-04-03T05:21:45.003Z,32.53
2019-04-03T05:24:13.874Z,37.63
2019-04-03T05:26:42.737Z,40.50
2019-04-03T05:29:11.330Z,39.27
2019-04-03T05:31:39.924Z,35.77
2019-04-03T05:34:08.469Z,36.70
2019-04-03T05:36:37.333Z,33.17
2019-04-03T05:39:07.780Z,40.77
2019-04-03T05:41:36.508Z,37.57
2019-04-03T05:44:05.223Z,35.27
2019-04-03T05:46:36.720Z,33.00
2019-04-03T05:49:04.125Z,34.83
2019-04-03T05:51:32.757Z,53.40
2019-04-03T05:54:01.519Z,56.73
2019-04-03T05:56:30.089Z,34.63
2019-04-03T05:59:01.302Z,31.70
2019-04-03T06:01:29.065Z,33.70
2019-04-03T06:03:57.588Z,41.13
2019-04-03T06:06:26.170Z,32.47
2019-04-03T06:08:56.531Z,34.93
2019-04-03T06:11:24.960Z,32.67
2019-04-03T06:13:53.542Z,32.13
2019-04-03T06:16:24.559Z,32.17
2019-04-03T06:18:52.375Z,31.13
2019-04-03T06:21:21.181Z,36.10
2019-04-03T06:23:50.877Z,33.73
2019-04-03T06:26:20.047Z,32.77
2019-04-03T06:28:48.666Z,34.50
2019-04-03T06:31:17.210Z,32.37
2019-04-03T06:33:45.821Z,34.73
2019-04-03T06:36:16.858Z,31.47
2019-04-03T06:38:46.783Z,35.63
2019-04-03T06:41:15.340Z,34.47
2019-04-03T06:43:43.954Z,32.63
2019-04-03T06:46:12.674Z,33.47
2019-04-03T06:48:41.169Z,34.03
2019-04-03T06:51:09.752Z,32.70
2019-04-03T06:53:38.313Z,36.10
2019-04-03T06:56:08.676Z,34.13
2019-04-03T06:58:39.581Z,29.73
2019-04-03T07:01:07.504Z,32.27
2019-04-03T07:03:36.105Z,34.07
2019-04-03T07:06:07.757Z,28.10
2019-04-03T07:08:40.923Z,29.70
2019-04-03T07:11:09.363Z,36.37
2019-04-03T07:13:38.183Z,30.20
2019-04-03T07:16:06.723Z,26.57
2019-04-03T07:18:38.363Z,26.67
2019-04-03T07:21:07.356Z,26.13
2019-04-03T07:23:35.969Z,28.53
2019-04-03T07:26:05.209Z,32.57
2019-04-03T07:28:34.265Z,25.17
2019-04-03T07:31:03.096Z,26.57
2019-04-03T07:33:31.838Z,27.27
2019-04-03T07:36:00.596Z,26.60
2019-04-03T07:38:29.192Z,26.93
2019-04-03T07:41:01.425Z,29.13
2019-04-03T07:43:30.323Z,26.77
2019-04-03T07:45:59.002Z,35.27
2019-04-03T07:48:27.742Z,25.83
2019-04-03T07:50:56.316Z,32.17
2019-04-03T07:53:25.119Z,33.60
2019-04-03T07:55:55.352Z,29.73
2019-04-03T07:58:25.377Z,25.90
2019-04-03T08:00:55.712Z,32.87
2019-04-03T08:03:24.382Z,30.60
2019-04-03T08:05:55.803Z,27.33
2019-04-03T08:08:23.332Z,31.60
2019-04-03T08:10:52.040Z,29.53
2019-04-03T08:13:20.612Z,31.83
2019-04-03T08:15:49.196Z,27.67
2019-04-03T08:18:20.657Z,31.83
2019-04-03T08:20:48.035Z,29.57
2019-04-03T08:23:16.577Z,31.10
2019-04-03T08:25:48.417Z,32.83
2019-04-03T08:28:15.577Z,28.83
2019-04-03T08:30:44.627Z,23.63
2019-04-03T08:33:17.570Z,28.40
2019-04-03T08:35:43.766Z,30.03
2019-04-03T08:38:13.412Z,32.77
2019-04-03T08:40:57.225Z,28.73
2019-04-03T08:43:25.813Z,33.53
2019-04-03T08:45:54.377Z,28.20
2019-04-03T08:48:22.939Z,26.13
2019-04-03T08:50:51.523Z,24.97
2019-04-03T08:53:20.167Z,30.63
2019-04-03T08:55:48.738Z,28.60
2019-04-03T08:58:17.332Z,24.20
2019-04-03T09:00:49.719Z,28.60
2019-04-03T09:03:21.655Z,28.70
2019-04-03T09:05:50.896Z,37.10
2019-04-03T09:08:20.344Z,28.47
2019-04-03T09:10:49.253Z,31.13
2019-04-03T09:13:22.439Z,27.63
2019-04-03T09:15:50.137Z,33.27
2019-04-03T09:18:19.097Z,30.03
2019-04-03T09:20:47.720Z,33.93
2019-04-03T09:23:16.269Z,29.00
2019-04-03T09:25:45.055Z,35.27
2019-04-03T09:28:13.639Z,32.77
2019-04-03T09:30:42.229Z,39.13
2019-04-03T09:33:10.849Z,34.13
2019-04-03T09:35:42.291Z,36.20
2019-04-03T09:38:11.354Z,34.90
2019-04-03T09:40:39.889Z,32.03
2019-04-03T09:43:08.459Z,31.40
2019-04-03T09:45:37.144Z,33.63
2019-04-03T09:48:06.216Z,29.10
2019-04-03T09:50:35.030Z,28.27
2019-04-03T09:53:04.156Z,31.20
2019-04-03T09:55:36.025Z,29.30
2019-04-03T09:58:04.200Z,28.83
2019-04-03T10:00:33.007Z,35.10
2019-04-03T10:03:01.835Z,30.47
2019-04-03T10:05:30.606Z,32.33
2019-04-03T10:07:59.342Z,30.53
2019-04-03T10:10:28.127Z,30.30
2019-04-03T10:12:56.660Z,30.83
2019-04-03T10:15:32.724Z,26.67
2019-04-03T10:18:01.042Z,24.47
2019-04-03T10:20:29.685Z,33.13
2019-04-03T10:22:58.522Z,26.27
2019-04-03T10:25:31.070Z,30.03
2019-04-03T10:28:01.148Z,28.70
2019-04-03T10:30:29.948Z,32.20
2019-04-03T10:32:59.577Z,24.77
2019-04-03T10:35:28.719Z,26.03
2019-04-03T10:37:57.654Z,25.70
2019-04-03T10:41:27.653Z,28.43
2019-04-03T10:43:05.912Z,30.07
2019-04-03T10:45:33.990Z,24.00
2019-04-03T10:48:05.879Z,27.40
2019-04-03T10:50:36.239Z,26.23
2019-04-03T10:53:03.612Z,26.60
2019-04-03T10:55:32.480Z,28.10
2019-04-03T10:58:02.435Z,22.07
2019-04-03T11:00:31.341Z,22.77
2019-04-03T11:03:00.056Z,24.10
2019-04-03T11:05:28.696Z,23.30
2019-04-03T11:07:57.336Z,20.67
2019-04-03T11:10:26.247Z,24.97
2019-04-03T11:12:54.932Z,22.60
2019-04-03T11:15:23.643Z,26.00
2019-04-03T11:17:52.565Z,24.60
2019-04-03T11:20:21.231Z,23.53
2019-04-03T11:22:49.954Z,23.70
2019-04-03T11:25:18.655Z,26.00
2019-04-03T11:27:47.431Z,21.67
2019-04-03T11:30:23.592Z,22.10
2019-04-03T11:32:48.608Z,20.20
2019-04-03T11:35:18.904Z,19.90
2019-04-03T11:37:47.668Z,20.97
2019-04-03T11:40:18.126Z,19.10
2019-04-03T11:42:47.736Z,20.97
2019-04-03T11:45:18.236Z,17.80
2019-04-03T11:47:47.356Z,21.27
2019-04-03T11:50:18.128Z,20.20
2019-04-03T11:52:46.823Z,17.67
2019-04-03T11:55:16.015Z,17.60
2019-04-03T11:57:47.459Z,15.83
2019-04-03T12:00:20.308Z,11.53
2019-04-03T12:02:49.054Z,13.77
2019-04-03T12:05:20.589Z,14.73
2019-04-03T12:07:48.599Z,16.57
2019-04-03T12:10:17.340Z,13.73
2019-04-03T12:12:46.009Z,11.43
2019-04-03T12:15:16.203Z,15.87
2019-04-03T12:17:45.493Z,17.50
2019-04-03T12:20:16.460Z,13.13
2019-04-03T12:22:45.252Z,14.43
2019-04-03T12:25:14.543Z,11.80
2019-04-03T12:27:44.934Z,12.67
2019-04-03T12:30:14.071Z,14.17
2019-04-03T12:32:48.593Z,16.07
2019-04-03T12:35:15.196Z,11.80
2019-04-03T12:37:43.831Z,11.20
2019-04-03T12:40:13.088Z,14.57
2019-04-03T12:42:41.770Z,15.67
2019-04-03T12:45:11.032Z,17.13
2019-04-03T12:47:42.831Z,11.37
2019-04-03T12:50:12.903Z,15.80
2019-04-03T12:52:43.236Z,11.40
2019-04-03T12:55:11.720Z,12.37
2019-04-03T12:57:40.400Z,13.03
2019-04-03T13:00:12.992Z,14.17
2019-04-03T13:02:42.351Z,13.73
2019-04-03T13:05:12.150Z,11.70
2019-04-03T13:07:40.801Z,13.23
2019-04-03T13:10:10.225Z,12.30
2019-04-03T13:12:39.183Z,9.93
2019-04-03T13:15:11.767Z,11.40
2019-04-03T13:17:42.890Z,10.00
2019-04-03T13:20:12.265Z,11.00
2019-04-03T13:22:42.537Z,11.70
2019-04-03T13:25:11.222Z,11.13
2019-04-03T13:27:39.866Z,11.60
2019-04-03T13:30:12.203Z,11.40
2019-04-03T13:32:39.837Z,12.60
2019-04-03T13:35:09.192Z,14.43
2019-04-03T13:37:37.803Z,11.70
2019-04-03T13:40:10.622Z,9.27
2019-04-03T13:42:39.206Z,10.50
2019-04-03T13:45:09.443Z,14.17
2019-04-03T13:47:41.601Z,16.70
2019-04-03T13:50:09.830Z,10.73
2019-04-03T13:52:42.339Z,10.73
2019-04-03T13:55:09.127Z,11.37
2019-04-03T13:57:37.850Z,13.07
2019-04-03T14:00:18.183Z,10.37
2019-04-03T14:02:38.609Z,12.27
2019-04-03T14:05:08.897Z,12.30
2019-04-03T14:07:40.383Z,13.47
2019-04-03T14:10:09.783Z,12.77
2019-04-03T14:12:43.057Z,15.10
2019-04-03T14:15:09.145Z,13.23
2019-04-03T14:17:37.783Z,11.67
2019-04-03T14:20:08.103Z,9.80
2019-04-03T14:22:37.385Z,12.57
2019-04-03T14:25:17.919Z,11.53
2019-04-03T14:27:38.441Z,13.83
2019-04-03T14:30:11.068Z,11.07
2019-04-03T14:32:39.393Z,14.83
2019-04-03T14:35:38.241Z,12.37
2019-04-03T14:37:38.827Z,12.47
2019-04-03T14:40:11.372Z,9.87
2019-04-03T14:42:38.853Z,10.30
2019-04-03T14:45:09.151Z,10.53
2019-04-03T14:47:37.757Z,10.80
2019-04-03T14:50:08.160Z,10.73
2019-04-03T14:52:37.243Z,15.63
2019-04-03T14:55:20.297Z,13.77
2019-04-03T14:57:39.307Z,10.43
2019-04-03T15:00:24.798Z,11.07
2019-04-03T15:02:41.367Z,12.33
2019-04-03T15:05:10.819Z,14.57
2019-04-03T15:07:40.414Z,13.17
2019-04-03T15:10:09.573Z,8.83
2019-04-03T15:12:39.800Z,13.43
2019-04-03T15:15:09.632Z,12.83
2019-04-03T15:17:38.877Z,11.27
2019-04-03T15:20:09.585Z,10.43
2019-04-03T15:22:38.434Z,9.23
2019-04-03T15:25:08.753Z,10.73
2019-04-03T15:27:38.120Z,9.83
2019-04-03T15:30:10.875Z,10.47
2019-04-03T15:32:39.682Z,11.70
2019-04-03T15:35:09.161Z,12.53
2019-04-03T15:37:39.928Z,14.37
2019-04-03T15:40:08.392Z,11.43
2019-04-03T15:42:40.241Z,12.80
2019-04-03T15:45:09.019Z,13.63
2019-04-03T15:47:41.748Z,8.83
2019-04-03T15:50:08.978Z,11.83
2019-04-03T15:52:38.573Z,14.23
2019-04-03T15:55:07.898Z,10.73
2019-04-03T15:57:39.496Z,13.13
2019-04-03T16:00:09.932Z,11.17
2019-04-03T16:02:39.227Z,10.67
2019-04-03T16:05:08.462Z,13.37
2019-04-03T16:07:40.467Z,11.80
2019-04-03T16:10:07.621Z,14.33
2019-04-03T16:12:38.333Z,9.73
2019-04-03T16:15:09.575Z,11.20
2019-04-03T16:17:39.153Z,17.53
2019-04-03T16:20:09.023Z,11.00
2019-04-03T16:22:38.167Z,13.27
2019-04-03T16:25:08.003Z,11.07
2019-04-03T16:27:36.677Z,15.27
2019-04-03T16:30:08.261Z,11.70
2019-04-03T16:32:37.087Z,13.90
2019-04-03T16:35:07.734Z,12.30
2019-04-03T16:37:37.118Z,15.10
2019-04-03T16:40:09.368Z,19.20
2019-04-03T16:42:38.091Z,15.80
2019-04-03T16:45:09.417Z,14.13
2019-04-03T16:47:39.184Z,13.30
2019-04-03T16:50:09.080Z,12.37
2019-04-03T16:52:38.665Z,14.93
2019-04-03T16:55:09.217Z,13.87
2019-04-03T16:57:38.314Z,17.00
2019-04-03T17:00:10.076Z,14.37
2019-04-03T17:02:38.840Z,16.10
2019-04-03T17:05:10.472Z,15.27
2019-04-03T17:07:38.599Z,16.00
2019-04-03T17:10:10.454Z,13.50
2019-04-03T17:12:39.290Z,21.40
2019-04-03T17:15:09.757Z,22.77
2019-04-03T17:17:39.066Z,18.07
2019-04-03T17:20:09.399Z,18.80
2019-04-03T17:22:40.212Z,16.43
2019-04-03T17:25:08.884Z,16.50
2019-04-03T17:27:37.812Z,16.40
2019-04-03T17:30:10.068Z,15.67
2019-04-03T17:32:39.183Z,16.03
2019-04-03T17:35:08.619Z,12.83
2019-04-03T17:37:37.520Z,15.77
2019-04-03T17:40:11.077Z,14.40
2019-04-03T17:42:40.237Z,15.30
2019-04-03T17:45:09.632Z,11.17
2019-04-03T17:47:38.224Z,17.73
2019-04-03T17:50:11.568Z,13.47
2019-04-03T17:52:40.264Z,16.43
2019-04-03T17:55:12.002Z,13.63
2019-04-03T17:57:40.637Z,12.80
2019-04-03T18:00:15.415Z,12.03
2019-04-03T18:02:44.066Z,13.47
2019-04-03T18:05:13.220Z,11.10
2019-04-03T18:07:41.797Z,11.87
2019-04-03T18:10:12.615Z,15.50
2019-04-03T18:12:41.098Z,13.80
2019-04-03T18:15:10.567Z,7.13
2019-04-03T18:17:39.160Z,9.03
2019-04-03T18:20:12.562Z,6.97
2019-04-03T18:22:39.851Z,8.70
2019-04-03T18:25:08.752Z,6.73
2019-04-03T18:27:37.280Z,6.07
2019-04-03T18:30:11.428Z,7.00
2019-04-03T18:32:38.857Z,6.27
2019-04-03T18:35:07.997Z,4.70
2019-04-03T18:37:36.617Z,4.33
2019-04-03T18:40:07.949Z,4.33
2019-04-03T18:42:36.508Z,3.97
2019-04-03T18:45:06.762Z,3.77
2019-04-03T18:47:41.024Z,4.87
2019-04-03T18:50:09.663Z,5.93
2019-04-03T18:52:38.713Z,3.87
2019-04-03T18:55:07.278Z,5.37
2019-04-03T18:57:36.649Z,4.70
2019-04-03T19:00:08.288Z,3.87
2019-04-03T19:02:36.992Z,4.60
2019-04-03T19:05:10.083Z,4.20
2019-04-03T19:07:37.768Z,5.00
2019-04-03T19:10:07.894Z,3.83
2019-04-03T19:12:36.624Z,3.50
2019-04-03T19:15:07.240Z,3.90
2019-04-03T19:17:35.977Z,3.50
2019-04-03T19:20:10.694Z,3.50
2019-04-03T19:22:36.674Z,9.10
2019-04-03T19:25:07.703Z,4.03
2019-04-03T19:27:36.378Z,3.50
2019-04-03T19:30:07.866Z,3.90
2019-04-03T19:32:36.578Z,4.37
2019-04-03T19:35:09.104Z,3.63
2019-04-03T19:37:37.512Z,4.17
2019-04-03T19:40:09.875Z,5.27
2019-04-03T19:42:38.741Z,9.57
2019-04-03T19:45:08.881Z,8.23
2019-04-03T19:47:37.504Z,6.33
2019-04-03T19:50:08.141Z,4.33
2019-04-03T19:52:37.327Z,3.90
2019-04-03T19:55:07.322Z,4.30
2019-04-03T19:57:35.882Z,5.53
2019-04-03T20:00:08.822Z,3.83
2019-04-03T20:02:38.245Z,3.77
2019-04-03T20:05:07.943Z,4.57
2019-04-03T20:07:36.648Z,5.03
2019-04-03T20:10:10.092Z,5.20
2019-04-03T20:12:38.797Z,4.93
2019-04-03T20:15:08.921Z,5.43
2019-04-03T20:17:37.566Z,4.67
2019-04-03T20:20:07.678Z,10.00
2019-04-03T20:22:37.872Z,4.87
2019-04-03T20:25:07.222Z,4.87
2019-04-03T20:27:35.944Z,6.00
2019-04-03T20:30:06.551Z,4.13
2019-04-03T20:32:35.224Z,11.37
2019-04-03T20:35:05.118Z,5.97
2019-04-03T20:37:33.800Z,6.30
2019-04-03T20:40:02.614Z,8.30
2019-04-03T20:42:31.291Z,7.93
2019-04-03T20:44:59.848Z,8.33
2019-04-03T20:47:28.433Z,7.37
2019-04-03T20:49:58.236Z,10.43
2019-04-03T20:52:26.915Z,8.73
2019-04-03T20:54:55.558Z,9.27
2019-04-03T20:57:24.206Z,10.13
2019-04-03T21:00:01.666Z,13.07
2019-04-03T21:02:23.293Z,10.57
2019-04-03T21:04:51.852Z,14.27
2019-04-03T21:07:23.654Z,17.27
2019-04-03T21:09:50.665Z,14.57
2019-04-03T21:12:19.282Z,15.80
2019-04-03T21:14:47.926Z,14.33
2019-04-03T21:17:18.515Z,16.07
2019-04-03T21:19:46.858Z,16.77
2019-04-03T21:22:15.518Z,18.10
2019-04-03T21:24:44.100Z,18.40
2019-04-03T21:27:12.777Z,16.83
2019-04-03T21:29:41.372Z,11.87
2019-04-03T21:32:10.703Z,15.17
2019-04-03T21:34:39.385Z,12.13
2019-04-03T21:37:09.585Z,16.23
2019-04-03T21:39:38.208Z,17.33
2019-04-03T21:42:06.784Z,14.60
2019-04-03T21:44:35.356Z,16.00
2019-04-03T21:47:04.213Z,15.07
2019-04-03T21:49:32.910Z,15.47
2019-04-03T21:52:04.293Z,18.13
2019-04-03T21:54:32.834Z,13.97
2019-04-03T21:57:01.585Z,13.90
2019-04-03T21:59:31.777Z,15.97
2019-04-03T22:02:00.433Z,15.47
2019-04-03T22:04:29.194Z,14.50
2019-04-03T22:06:58.298Z,11.17
2019-04-03T22:09:34.524Z,13.03
2019-04-03T22:12:05.685Z,11.50
2019-04-03T22:14:35.782Z,11.07
2019-04-03T22:17:04.601Z,10.13
2019-04-03T22:19:33.386Z,9.03
2019-04-03T22:22:03.081Z,9.70
2019-04-03T22:24:32.357Z,9.70
2019-04-03T22:27:01.487Z,8.23
2019-04-03T22:29:30.071Z,9.23
2019-04-03T22:31:58.665Z,7.23
2019-04-03T22:34:29.623Z,5.93
2019-04-03T22:36:57.477Z,6.70
2019-04-03T22:39:26.229Z,7.40
2019-04-03T22:41:54.797Z,7.17
2019-04-03T22:44:23.373Z,5.63
2019-04-03T22:46:52.091Z,6.33
2019-04-03T22:49:22.373Z,5.53
2019-04-03T22:51:50.938Z,6.47
2019-04-03T22:54:19.514Z,6.13
2019-04-03T22:56:50.247Z,6.60
2019-04-03T22:59:19.437Z,6.33
2019-04-03T23:01:48.476Z,6.13
2019-04-03T23:04:21.948Z,5.67
2019-04-03T23:06:52.954Z,5.80
2019-04-03T23:09:24.733Z,5.53
2019-04-03T23:11:51.733Z,4.97
2019-04-03T23:14:20.416Z,5.17
2019-04-03T23:16:49.278Z,4.60
2019-04-03T23:19:18.890Z,4.77
2019-04-03T23:21:48.042Z,4.57
2019-04-03T23:24:16.962Z,5.27
2019-04-03T23:26:45.911Z,5.17
2019-04-03T23:29:14.458Z,4.73
2019-04-03T23:31:45.027Z,4.67
2019-04-03T23:34:13.237Z,4.97
2019-04-03T23:36:41.789Z,4.60
2019-04-03T23:39:29.891Z,6.17
2019-04-03T23:41:59.047Z,4.83
2019-04-03T23:44:27.717Z,4.93
2019-04-03T23:46:56.277Z,5.00
2019-04-03T23:49:24.958Z,5.00
2019-04-03T23:51:53.560Z,4.93
2019-04-03T23:54:22.437Z,4.67
2019-04-03T23:56:52.974Z,4.93
2019-04-03T23:59:21.571Z,5.40
